Atlantic - Newfoundland: Past 24 Hour Conditions

 

Blanc-Sablon Airport

01:00 AM AST 14 December 2018
Disclaimer

This table is a summary of hourly weather conditions for the past 24 hours.
Please note that these observations might not always be representative of weather conditions over their associated marine area.

Date / Time
(AST)
Wind(knots) Conditions Visibility(km) Pressure(kPa) Air tempC) Relative humidity(%) Dew pointC) Wind Chill
14 December 2018
1:00 W 21 Cloudy 24 101.4 -10 60 -16 -20
0:00 W 13 gust 22 Cloudy 24 101.4 -10 59 -16 -18
13 December 2018
23:00 W 16 gust 22 Cloudy 24 101.4 -9 58 -16 -19
22:00 W 17 gust 23 Cloudy 24 101.4 -9 56 -16 -19
21:00 WNW 10 Mostly Cloudy 24 101.4 -9 58 -16 -16
20:00 W 13 gust 18 Mostly Cloudy 24 101.5 -9 55 -16 -17
19:00 W 15 gust 20 Mostly Cloudy 24 101.5 -9 56 -16 -18
18:00 W 10 Partly Cloudy 24 101.5 -10 62 -16 -18
17:00 W 9 Partly Cloudy 24 101.5 -11 65 -16 -18
16:00 W 9 gust 16 Mainly Clear 24 101.5 -12 67 -17 -20
15:00 W 8 Mainly Sunny 24 101.5 -13 62 -19 -21
14:00 W 11 gust 16 Mainly Sunny 24 101.4 -14 60 -20 -22
13:00 W 11 Mainly Sunny 24 101.4 -14 62 -20 -24
12:00 W 12 Mainly Sunny 24 101.4 -15 64 -21 -25
11:00 WNW 8 Mainly Sunny 24 101.4 -15 69 -20 -23
10:00 NW 6 Mainly Sunny 24 101.5 -17 58 -24 -24
9:00 NE 4 Mainly Sunny 24 101.4 -20 59 -26 -26
8:00 WNW 3 Mainly Sunny 24 101.5 -21 59 -27 -26
7:00 N 8 Clear 24 101.5 -20 60 -26 -29
6:00 E 3 Clear 24 101.4 -21 65 -26 -25
5:00 NNE 6 Clear 24 101.4 -21 66 -26 -28
4:00 NE 5 Clear 24 101.4 -20 64 -26 -28
3:00 NE 10 Clear 24 101.3 -19 62 -25 -29
2:00 NNE 13 Clear 24 101.3 -17 58 -24 -28
1:00 NNE 13 gust 21 Clear 24 101.3 -17 60 -23 -28

Zoom-in to make a selection

Map of Atlantic - Newfoundland marine weather areas Banquereau - 44139 Blanc-Sablon Airport Cap Whittle Chevery Natashquan Airport Heath Point Îles de la Madeleine Airport Miscou Island Eskasoni (First Nations) Grand Étang Ingonish Beach North Mountain St.Paul Island J.A. Douglas McCurdy Sydney Airport Charlottetown Airport East Point North Cape Argentia Bonavista Burgeo Cape Race Corner Brook Daniel's Harbour Englee Ferolle Point La Scie Port aux Basques Rocky Harbour Sagona Island St. Anthony Airport St. John's Int'l Airport St. Lawrence Stephenville Airport Twillingate Winterland Wreckhouse Grates Cove Pool's Island Marticot Island Long Pond Cartwright Airport Mary's Harbour
Legend:
buoy Buoy
land station Land Station

Atlantic - Newfoundland Area

Another Region

What we are doing

Date modified: